Latest Coastal Weather Observations for Tewantin

IDQ60701

Issued at 10:55 pm EST Wednesday 30 July 2014 (issued every 10 minutes, with the page automatically refreshed every 10 minutes)

About coastal observations | Map of coastal stations | Coastal observations for QLD | Marine services | Other Formats
Station Details ID: 040908 Name: TEWANTIN RSL PARK Lat: -26.39 Lon: 153.04 Height: 6.4 m
Data from the previous 72 hours. | See also: Recent months at Tewantin
Date/Time
EST
Temp

°C
Wind Pressure Rain
since 9am
mm
Weather Cloud Vis
km
Sea
Height
m
Swell
Dir
 
Speed
knots
Gust
knots
hPa Trend Height
m
Period
s
Dir
30/10:30pm 14.0 N 3 5 1021.4 - 0.0 - - - - - - -
30/10:00pm 14.2 NNW 1 4 1021.5 - 0.0 - - - - - - -
30/09:30pm 14.3 CALM 0 0 1021.5 - 0.0 - - - - - - -
30/09:00pm 15.2 CALM 0 0 1021.5 - 0.0 - - - - - - -
30/08:30pm 16.1 WSW 2 4 1021.4 - 0.0 - - - - - - -
30/08:00pm 16.6 N 1 4 1020.9 - 0.0 - - - - - - -
30/07:30pm 16.4 W 1 3 1020.7 - 0.0 - - - - - - -
30/07:00pm 17.5 N 3 4 1020.4 - 0.0 - - - - - - -
30/06:30pm 18.5 CALM 0 0 1020.0 - 0.0 - - - - - - -
30/06:00pm 19.4 N 5 6 1019.7 - 0.0 - - - - - - -
30/05:30pm 19.9 N 7 10 1019.2 - 0.0 - - - - - - -
30/05:00pm 20.6 N 10 15 1019.0 - 0.0 - - - - - - -
30/04:30pm 21.0 NNE 10 14 1018.8 - 0.0 - - - - - - -
30/04:00pm 21.2 NNE 10 14 1018.6 - 0.0 - - - - - - -
30/03:30pm 21.8 NNE 11 16 1018.3 - 0.0 - - - - - - -
30/03:00pm 21.9 NNE 10 14 1018.4 - 0.0 - - - - - - -
30/02:30pm 22.1 NNE 9 14 1018.6 - 0.0 - - - - - - -
30/02:00pm 24.0 N 5 8 1018.9 - 0.0 - - - - - - -
30/01:30pm 24.2 N 6 9 1019.4 - 0.0 - - - - - - -
30/01:00pm 23.7 N 6 10 1019.8 - 0.0 - - - - - - -
30/12:30pm 23.5 N 7 11 1020.4 - 0.0 - - - - - - -
30/12:00pm 23.1 N 7 10 1021.1 - 0.0 - - - - - - -
30/11:30am 23.2 N 8 12 1021.6 - 0.0 - - - - - - -
30/11:00am 21.9 NNW 7 11 1022.3 - 0.0 - - - - - - -
30/10:30am 20.8 N 7 10 1022.8 - 0.0 - - - - - - -
30/10:00am 21.1 NW 5 8 1023.2 - 0.0 - - - - - - -
30/09:30am 19.9 NW 5 8 1023.5 - 0.0 - - - - - - -
30/09:00am 18.3 NNW 3 7 1023.7 - 0.0 - - - - - - -
30/08:30am 15.9 NNE 2 4 1023.5 - 0.0 - - - - - - -
30/08:00am 13.8 NNW 1 3 1023.5 - 0.0 - - - - - - -
30/07:30am 11.6 CALM 0 3 1023.4 - 0.0 - - - - - - -
30/07:00am 10.5 CALM 0 0 1023.1 - 0.0 - - - - - - -
30/06:30am 10.2 CALM 0 0 1022.9 - 0.0 - - - - - - -
30/06:00am 10.5 CALM 0 0 1022.6 - 0.0 - - - - - - -
30/05:30am 10.2 NNW 1 4 1022.2 - 0.0 - - - - - - -
30/05:00am 10.2 NW 2 4 1021.9 - 0.0 - - - - - - -
30/04:30am 10.5 CALM 0 0 1021.7 - 0.0 - - - - - - -
30/04:00am 10.7 CALM 0 0 1021.6 - 0.0 - - - - - - -
30/03:30am 11.2 CALM 0 0 1021.6 - 0.0 - - - - - - -
30/03:00am 11.4 N 3 3 1021.6 - 0.0 - - - - - - -
30/02:30am 11.5 CALM 0 0 1021.7 - 0.0 - - - - - - -
30/02:00am 11.5 CALM 0 0 1021.6 - 0.0 - - - - - - -
30/01:30am 11.9 CALM 0 0 1021.6 - 0.0 - - - - - - -
30/01:00am 12.0 CALM 0 0 1021.8 - 0.0 - - - - - - -
30/12:30am 12.3 NW 1 3 1021.9 - 0.0 - - - - - - -
30/12:00am 12.7 N 1 3 1022.0 - 0.0 - - - - - - -
 
Date/Time
EST
Temp

°C
Wind Pressure Rain
since 9am
mm
Weather Cloud Vis
km
Sea
Height
m
Swell
Dir
 
Speed
knots
Gust
knots
hPa Trend Height
m
Period
s
Dir
29/11:30pm 13.1 CALM 0 0 1022.0 - 0.0 - - - - - - -
29/11:00pm 13.4 CALM 0 0 1022.0 - 0.0 - - - - - - -
29/10:30pm 14.6 NNW 3 4 1021.9 - 0.0 - - - - - - -
29/10:00pm 15.1 N 3 5 1021.8 - 0.0 - - - - - - -
29/09:30pm 15.2 N 3 4 1021.7 - 0.0 - - - - - - -
29/09:00pm 16.0 N 4 4 1021.5 - 0.0 - - - - - - -
29/08:30pm 16.7 NNW 4 5 1021.4 - 0.0 - - - - - - -
29/08:00pm 16.5 N 4 7 1021.3 - 0.0 - - - - - - -
29/07:30pm 17.4 NNW 3 5 1021.1 - 0.0 - - - - - - -
29/07:00pm 18.1 N 5 7 1020.8 - 0.0 - - - - - - -
29/06:30pm 18.7 N 4 6 1020.5 - 0.0 - - - - - - -
29/06:00pm 18.9 NNE 6 8 1020.1 - 0.0 - - - - - - -
29/05:30pm 19.3 NE 6 9 1019.9 - 0.0 - - - - - - -
29/05:00pm 20.0 NNE 8 12 1019.5 - 0.0 - - - - - - -
29/04:30pm 20.6 NNE 8 13 1019.3 - 0.0 - - - - - - -
29/04:00pm 21.0 NNE 7 13 1019.3 - 0.0 - - - - - - -
29/03:30pm 21.3 NNE 8 12 1019.1 - 0.0 - - - - - - -
29/03:00pm 22.4 NE 7 11 1019.0 - 0.0 - - - - - - -
29/02:30pm 24.1 CALM 0 3 1019.0 - 0.0 - - - - - - -
29/02:00pm 24.7 WNW 5 9 1019.4 - 0.0 - - - - - - -
29/01:30pm 24.4 NNW 4 7 1019.8 - 0.0 - - - - - - -
29/01:00pm 24.4 WSW 4 11 1020.2 - 0.0 - - - - - - -
29/12:30pm 23.6 NNW 6 9 1020.6 - 0.0 - - - - - - -
29/12:00pm 22.7 NNW 6 10 1021.2 - 0.0 - - - - - - -
29/11:30am 22.0 N 10 15 1021.9 - 0.0 - - - - - - -
29/11:00am 22.1 NW 7 12 1022.4 - 0.0 - - - - - - -
29/10:30am 21.2 WNW 5 10 1022.7 - 0.0 - - - - - - -
29/10:00am 20.3 NW 5 8 1023.0 - 0.0 - - - - - - -
29/09:30am 18.6 NNW 5 7 1023.3 - 0.0 - - - - - - -
29/09:00am 17.8 NW 5 8 1023.5 - 0.2 - - - - - - -
29/08:30am 15.9 NW 1 4 1023.5 - 0.2 - - - - - - -
29/08:00am 14.1 NW 2 5 1023.4 - 0.2 - - - - - - -
29/07:30am 11.6 NNW 1 3 1023.1 - 0.2 - - - - - - -
29/07:00am 10.1 NNW 1 4 1022.9 - 0.2 - - - - - - -
29/06:30am 9.7 NW 3 4 1022.6 - 0.2 - - - - - - -
29/06:00am 10.4 NW 4 5 1022.1 - 0.2 - - - - - - -
29/05:30am 10.2 W 1 4 1021.8 - 0.2 - - - - - - -
29/05:00am 10.1 NW 3 4 1021.5 - 0.2 - - - - - - -
29/04:30am 10.5 NW 3 4 1021.3 - 0.2 - - - - - - -
29/04:00am 10.6 NNW 3 4 1021.2 - 0.2 - - - - - - -
29/03:30am 10.5 NNW 3 4 1021.1 - 0.2 - - - - - - -
29/03:00am 10.4 CALM 0 0 1021.3 - 0.2 - - - - - - -
29/02:30am 10.7 CALM 0 0 1021.4 - 0.2 - - - - - - -
29/02:00am 10.7 CALM 0 0 1021.6 - 0.2 - - - - - - -
29/01:30am 10.9 CALM 0 0 1021.6 - 0.2 - - - - - - -
29/01:00am 11.1 CALM 0 0 1021.8 - 0.2 - - - - - - -
29/12:30am 11.3 CALM 0 0 1022.1 - 0.2 - - - - - - -
29/12:00am 11.4 CALM 0 0 1022.3 - 0.2 - - - - - - -
 
Date/Time
EST
Temp

°C
Wind Pressure Rain
since 9am
mm
Weather Cloud Vis
km
Sea
Height
m
Swell
Dir
 
Speed
knots
Gust
knots
hPa Trend Height
m
Period
s
Dir
28/11:30pm 11.8 CALM 0 0 1022.4 - 0.2 - - - - - - -
28/11:00pm 12.2 CALM 0 0 1022.4 - 0.2 - - - - - - -
28/10:30pm 12.2 SW 1 4 1022.6 - 0.2 - - - - - - -
28/10:00pm 12.4 CALM 0 0 1022.6 - 0.2 - - - - - - -
28/09:30pm 12.6 CALM 0 0 1022.5 - 0.2 - - - - - - -
28/09:00pm 12.9 CALM 0 0 1022.3 - 0.2 - - - - - - -
28/08:30pm 13.6 CALM 0 0 1022.2 - 0.2 - - - - - - -
28/08:00pm 13.9 CALM 0 0 1022.0 - 0.2 - - - - - - -
28/07:30pm 14.7 CALM 0 0 1021.9 - 0.2 - - - - - - -
28/07:00pm 15.6 SW 2 4 1021.6 - 0.2 - - - - - - -
28/06:30pm 16.6 CALM 0 4 1021.2 - 0.2 - - - - - - -
28/06:00pm 17.5 CALM 0 3 1020.9 - 0.2 - - - - - - -
28/05:30pm 18.0 NNE 4 5 1020.7 - 0.2 - - - - - - -
28/05:00pm 18.7 NNE 6 10 1020.6 - 0.2 - - - - - - -
28/04:30pm 19.3 NE 7 10 1020.5 - 0.2 - - - - - - -
28/04:00pm 19.6 NE 7 12 1020.3 - 0.2 - - - - - - -
28/03:30pm 19.7 NNE 9 13 1020.4 - 0.2 - - - - - - -
28/03:00pm 20.1 NNE 8 12 1020.3 - 0.2 Recent precip. - - - - - -
28/02:30pm 20.6 NE 8 10 1020.5 - 0.2 - - - - - - -
28/02:00pm 21.1 NE 8 12 1020.8 - 0.0 - - - - - - -
28/01:30pm 21.5 NNE 6 11 1021.1 - 0.0 - - - - - - -
28/01:00pm 21.6 NNE 5 7 1021.5 - 0.0 - - - - - - -
28/12:30pm 21.4 N 5 9 1021.9 - 0.0 - - - - - - -
28/12:00pm 20.4 ENE 3 5 1022.6 - 0.0 - - - - - - -
28/11:30am 20.4 N 6 11 1023.2 - 0.0 - - - - - - -
28/11:00am 20.7 N 6 10 1023.6 - 0.0 - - - - - - -
28/10:30am 20.6 NW 3 7 1024.0 - 0.0 - - - - - - -
28/10:00am 20.1 NW 1 4 1024.1 - 0.0 - - - - - - -
28/09:30am 19.0 CALM 0 3 1024.4 - 0.0 - - - - - - -
28/09:00am 17.7 NNW 3 4 1024.3 - 0.0 - - - - - - -
28/08:30am 15.9 W 1 4 1024.2 - 0.0 - - - - - - -
28/08:00am 13.7 CALM 0 3 1024.1 - 0.0 - - - - - - -
28/07:30am 11.6 WNW 2 4 1023.9 - 0.0 - - - - - - -
28/07:00am 9.8 CALM 0 0 1023.8 - 0.0 - - - - - - -
28/06:30am 9.3 CALM 0 0 1023.6 - 0.0 - - - - - - -
28/06:00am 9.4 CALM 0 0 1023.2 - 0.0 - - - - - - -
28/05:30am 9.6 CALM 0 0 1023.0 - 0.0 - - - - - - -
28/05:00am 9.8 CALM 0 0 1022.7 - 0.0 - - - - - - -
28/04:30am 10.1 CALM 0 0 1022.6 - 0.0 - - - - - - -
28/04:00am 10.4 CALM 0 0 1022.5 - 0.0 - - - - - - -
28/03:30am 10.6 CALM 0 0 1022.5 - 0.0 - - - - - - -
28/03:00am 10.6 CALM 0 0 1022.5 - 0.0 - - - - - - -
28/02:30am 10.7 CALM 0 0 1022.4 - 0.0 - - - - - - -
28/02:00am 10.6 CALM 0 0 1022.7 - 0.0 - - - - - - -
28/01:30am 10.8 CALM 0 0 1023.2 - 0.0 - - - - - - -
28/01:00am 11.3 CALM 0 0 1023.3 - 0.0 - - - - - - -
28/12:30am 11.9 SW 1 3 1023.3 - 0.0 - - - - - - -
28/12:00am 12.1 CALM 0 0 1023.2 - 0.0 - - - - - - -
 
Date/Time
EST
Temp

°C
Wind Pressure Rain
since 9am
mm
Weather Cloud Vis
km
Sea
Height
m
Swell
Dir
 
Speed
knots
Gust
knots
hPa Trend Height
m
Period
s
Dir
27/11:30pm 11.9 CALM 0 0 1023.4 - 0.0 - - - - - - -
27/11:00pm 12.6 CALM 0 0 1023.7 - 0.0 - - - - - - -

Other Formats:

Comma delimited format used in spreadsheet applications
http://www.bom.gov.au/fwo/IDQ60701/IDQ60701.94570.axf

JavaScript Object Notation format (JSON) in row-major order
http://www.bom.gov.au/fwo/IDQ60701/IDQ60701.94570.json